DLH414 EDDM-KIAD
Flight info
| Callsign | DLH414 |
|---|---|
| Flight time | N/A |
| Altitude | 36000 |
| Route | GIVMI6E GIVMI Y101 INBED DCT REKDI DCT LOHRE DCT ADKUV DCT LENDO DCT DENUT L610 LAM L179 UGBET Q60 OKSAW DCT FELCA DCT OFSOX DCT SLANY DCT MALOT/M084F380 NATD RIKAL/N0485F380 N572A TOPPS DCT KAYCC DCT KYLOH DCT BAF HYPER9 |
| Aircraft | A388/J-SADE2E3FGHIJ3J4J5M1RWXY/LB1D1 |
Departure
| Time | 2026-05-04 13:01 |
|---|---|
| Airport | Munich Airport (EDDM) |
Arrival
| Time | N/A |
|---|---|
| Airport | Washington Dulles International Airport (KIAD) |
| Time | Latitude | Longitude | Altitude | Speed | Heading |
|---|---|---|---|---|---|
| 2026-05-04 12:38 | 48.35339 | 11.80029 | 1490 ft | 0 kts | 263° |
| 2026-05-04 12:46 | 48.35339 | 11.80032 | 1490 ft | 1 kts | 263° |
| 2026-05-04 12:46 | 48.35340 | 11.80042 | 1475 ft | 2 kts | 263° |
| 2026-05-04 12:47 | 48.35342 | 11.80064 | 1483 ft | 3 kts | 263° |
| 2026-05-04 12:47 | 48.35346 | 11.80096 | 1475 ft | 3 kts | 256° |
| 2026-05-04 12:47 | 48.35354 | 11.80125 | 1475 ft | 2 kts | 240° |
| 2026-05-04 12:47 | 48.35366 | 11.80144 | 1475 ft | 3 kts | 219° |
| 2026-05-04 12:48 | 48.35382 | 11.80155 | 1475 ft | 3 kts | 197° |
| 2026-05-04 12:48 | 48.35399 | 11.80155 | 1475 ft | 3 kts | 175° |
| 2026-05-04 12:48 | 48.35414 | 11.80151 | 1479 ft | 0 kts | 168° |
| 2026-05-04 12:52 | 48.35405 | 11.80154 | 1477 ft | 3 kts | 168° |
| 2026-05-04 12:52 | 48.35371 | 11.80165 | 1475 ft | 7 kts | 168° |
| 2026-05-04 12:52 | 48.35318 | 11.80178 | 1484 ft | 9 kts | 172° |
| 2026-05-04 12:53 | 48.35263 | 11.80190 | 1477 ft | 8 kts | 172° |
| 2026-05-04 12:53 | 48.35208 | 11.80201 | 1477 ft | 9 kts | 172° |
| 2026-05-04 12:53 | 48.35147 | 11.80211 | 1484 ft | 7 kts | 191° |
| 2026-05-04 12:53 | 48.35113 | 11.80168 | 1477 ft | 7 kts | 251° |
| 2026-05-04 12:54 | 48.35099 | 11.80069 | 1483 ft | 12 kts | 259° |
| 2026-05-04 12:54 | 48.35081 | 11.79921 | 1477 ft | 17 kts | 259° |
| 2026-05-04 12:54 | 48.35060 | 11.79740 | 1481 ft | 13 kts | 259° |
| 2026-05-04 12:54 | 48.35022 | 11.79606 | 1475 ft | 14 kts | 229° |
| 2026-05-04 12:55 | 48.34934 | 11.79546 | 1490 ft | 15 kts | 177° |
| 2026-05-04 12:55 | 48.34841 | 11.79559 | 1480 ft | 9 kts | 175° |
| 2026-05-04 12:55 | 48.34799 | 11.79526 | 1475 ft | 7 kts | 236° |
| 2026-05-04 12:55 | 48.34782 | 11.79430 | 1475 ft | 13 kts | 263° |
| 2026-05-04 12:56 | 48.34769 | 11.79257 | 1479 ft | 21 kts | 263° |
| 2026-05-04 12:56 | 48.34750 | 11.79006 | 1481 ft | 28 kts | 263° |
| 2026-05-04 12:56 | 48.34725 | 11.78690 | 1479 ft | 31 kts | 263° |
| 2026-05-04 12:56 | 48.34701 | 11.78375 | 1482 ft | 30 kts | 263° |
| 2026-05-04 12:57 | 48.34678 | 11.78066 | 1487 ft | 29 kts | 263° |
| 2026-05-04 12:57 | 48.34655 | 11.77767 | 1485 ft | 29 kts | 263° |
| 2026-05-04 12:57 | 48.34632 | 11.77469 | 1488 ft | 28 kts | 263° |
| 2026-05-04 12:57 | 48.34610 | 11.77186 | 1478 ft | 28 kts | 263° |
| 2026-05-04 12:58 | 48.34588 | 11.76900 | 1483 ft | 27 kts | 263° |
| 2026-05-04 12:58 | 48.34567 | 11.76618 | 1490 ft | 27 kts | 263° |
| 2026-05-04 12:58 | 48.34545 | 11.76340 | 1482 ft | 27 kts | 263° |
| 2026-05-04 12:58 | 48.34523 | 11.76062 | 1482 ft | 27 kts | 263° |
| 2026-05-04 12:59 | 48.34502 | 11.75784 | 1486 ft | 27 kts | 263° |
| 2026-05-04 12:59 | 48.34480 | 11.75512 | 1479 ft | 27 kts | 263° |
| 2026-05-04 12:59 | 48.34458 | 11.75235 | 1490 ft | 26 kts | 263° |
| 2026-05-04 12:59 | 48.34401 | 11.74989 | 1477 ft | 24 kts | 223° |
| 2026-05-04 13:00 | 48.34254 | 11.74926 | 1482 ft | 20 kts | 171° |
| 2026-05-04 13:00 | 48.34147 | 11.75028 | 1479 ft | 19 kts | 128° |
| 2026-05-04 13:00 | 48.34082 | 11.75183 | 1483 ft | 15 kts | 103° |
| 2026-05-04 13:00 | 48.34089 | 11.75348 | 1490 ft | 31 kts | 83° |
| 2026-05-04 13:01 | 48.34145 | 11.76097 | 1481 ft | 111 kts | 83° |
| 2026-05-04 13:01 | 48.34258 | 11.77569 | 1478 ft | 166 kts | 84° |
| 2026-05-04 13:01 | 48.34390 | 11.79446 | 1623 ft | 190 kts | 83° |
| 2026-05-04 13:01 | 48.34563 | 11.81420 | 2166 ft | 191 kts | 80° |
| 2026-05-04 13:02 | 48.34814 | 11.83375 | 2696 ft | 189 kts | 78° |
| 2026-05-04 13:02 | 48.34999 | 11.85308 | 3212 ft | 188 kts | 85° |
| 2026-05-04 13:02 | 48.35102 | 11.87249 | 3723 ft | 188 kts | 85° |
| 2026-05-04 13:02 | 48.35205 | 11.89255 | 4131 ft | 197 kts | 84° |
| 2026-05-04 13:03 | 48.35359 | 11.91426 | 4431 ft | 220 kts | 83° |
| 2026-05-04 13:03 | 48.35534 | 11.93836 | 4687 ft | 246 kts | 82° |
| 2026-05-04 13:03 | 48.36060 | 11.96381 | 4919 ft | 264 kts | 59° |
| 2026-05-04 13:03 | 48.37339 | 11.98351 | 5357 ft | 272 kts | 32° |
| 2026-05-04 13:04 | 48.39139 | 11.99279 | 5878 ft | 278 kts | 4° |
| 2026-05-04 13:04 | 48.41033 | 11.98904 | 6421 ft | 282 kts | 338° |
| 2026-05-04 13:04 | 48.42660 | 11.97250 | 7025 ft | 285 kts | 310° |
| 2026-05-04 13:04 | 48.43705 | 11.94685 | 7650 ft | 290 kts | 291° |
| 2026-05-04 13:05 | 48.44475 | 11.91873 | 8267 ft | 296 kts | 291° |
| 2026-05-04 13:05 | 48.45386 | 11.89045 | 8917 ft | 304 kts | 297° |
| 2026-05-04 13:05 | 48.46476 | 11.86317 | 9577 ft | 308 kts | 300° |
| 2026-05-04 13:05 | 48.47694 | 11.83598 | 10231 ft | 314 kts | 302° |
| 2026-05-04 13:06 | 48.48972 | 11.80899 | 10854 ft | 317 kts | 303° |
| 2026-05-04 13:06 | 48.50259 | 11.78233 | 11512 ft | 319 kts | 303° |
| 2026-05-04 13:06 | 48.51577 | 11.75497 | 12164 ft | 320 kts | 303° |